sensor_id;sensor_type;location;lat;lon;timestamp;pressure;altitude;pressure_sealevel;temperature;humidity
65553;BME280;52465;51.560;14.368;2023-04-28T00:00:00;100658.66;;;12.66;59.26
65553;BME280;52465;51.560;14.368;2023-04-28T00:02:28;100648.31;;;12.64;59.00
65553;BME280;52465;51.560;14.368;2023-04-28T00:04:54;100649.63;;;12.60;59.63
65553;BME280;52465;51.560;14.368;2023-04-28T00:07:22;100657.03;;;12.65;59.14
65553;BME280;52465;51.560;14.368;2023-04-28T00:09:48;100629.56;;;12.51;59.60
65553;BME280;52465;51.560;14.368;2023-04-28T00:12:13;100652.75;;;12.64;59.23
65553;BME280;52465;51.560;14.368;2023-04-28T00:14:39;100645.03;;;12.62;59.18
65553;BME280;52465;51.560;14.368;2023-04-28T00:17:05;100626.78;;;12.53;59.58
65553;BME280;52465;51.560;14.368;2023-04-28T00:19:35;100614.78;;;12.42;59.25
65553;BME280;52465;51.560;14.368;2023-04-28T00:22:00;100631.56;;;12.57;59.31
65553;BME280;52465;51.560;14.368;2023-04-28T00:24:26;100592.91;;;12.33;59.36
65553;BME280;52465;51.560;14.368;2023-04-28T00:26:52;100582.75;;;12.30;59.40
65553;BME280;52465;51.560;14.368;2023-04-28T00:29:17;100623.00;;;12.55;59.13
65553;BME280;52465;51.560;14.368;2023-04-28T00:31:43;100595.41;;;12.43;59.41
65553;BME280;52465;51.560;14.368;2023-04-28T00:34:09;100606.78;;;12.52;59.44
65553;BME280;52465;51.560;14.368;2023-04-28T00:36:41;100608.06;;;12.48;59.38
65553;BME280;52465;51.560;14.368;2023-04-28T00:39:07;100624.81;;;12.55;59.10
65553;BME280;52465;51.560;14.368;2023-04-28T00:41:33;100561.53;;;12.15;59.58
65553;BME280;52465;51.560;14.368;2023-04-28T00:43:59;100591.31;;;12.40;59.44
65553;BME280;52465;51.560;14.368;2023-04-28T00:53:18;100605.75;;;12.36;60.17
65553;BME280;52465;51.560;14.368;2023-04-28T00:55:45;100613.81;;;12.51;60.33
65553;BME280;52465;51.560;14.368;2023-04-28T00:58:11;100612.81;;;12.44;59.88
65553;BME280;52465;51.560;14.368;2023-04-28T01:00:37;100597.41;;;12.49;59.60
65553;BME280;52465;51.560;14.368;2023-04-28T01:09:28;100581.78;;;12.39;60.26
65553;BME280;52465;51.560;14.368;2023-04-28T01:11:54;100569.63;;;12.38;59.87
65553;BME280;52465;51.560;14.368;2023-04-28T01:14:19;100588.06;;;12.55;60.11
65553;BME280;52465;51.560;14.368;2023-04-28T01:16:45;100589.56;;;12.57;59.51
65553;BME280;52465;51.560;14.368;2023-04-28T01:19:16;100581.47;;;12.51;59.83
65553;BME280;52465;51.560;14.368;2023-04-28T01:21:44;100581.00;;;12.47;59.69
65553;BME280;52465;51.560;14.368;2023-04-28T01:24:10;100527.56;;;12.14;59.42
65553;BME280;52465;51.560;14.368;2023-04-28T01:33:26;100491.25;;;11.93;60.32
65553;BME280;52465;51.560;14.368;2023-04-28T01:35:56;100558.97;;;12.40;60.15
65553;BME280;52465;51.560;14.368;2023-04-28T01:38:21;100567.53;;;12.50;60.06
65553;BME280;52465;51.560;14.368;2023-04-28T01:41:06;100570.97;;;12.51;60.18
65553;BME280;52465;51.560;14.368;2023-04-28T01:43:31;100578.69;;;12.52;59.84
65553;BME280;52465;51.560;14.368;2023-04-28T01:46:00;100550.59;;;12.36;59.87
65553;BME280;52465;51.560;14.368;2023-04-28T01:48:26;100507.88;;;12.02;59.76
65553;BME280;52465;51.560;14.368;2023-04-28T01:50:52;100559.31;;;12.45;60.04
65553;BME280;52465;51.560;14.368;2023-04-28T01:53:17;100560.97;;;12.46;59.41
65553;BME280;52465;51.560;14.368;2023-04-28T01:56:10;100563.59;;;12.46;59.59
65553;BME280;52465;51.560;14.368;2023-04-28T01:58:35;100513.47;;;12.07;59.97
65553;BME280;52465;51.560;14.368;2023-04-28T02:07:53;100542.69;;;12.20;60.65
65553;BME280;52465;51.560;14.368;2023-04-28T02:10:18;100552.06;;;12.39;60.37
65553;BME280;52465;51.560;14.368;2023-04-28T02:12:44;100558.66;;;12.43;60.05
65553;BME280;52465;51.560;14.368;2023-04-28T02:15:09;100541.41;;;12.32;59.84
65553;BME280;52465;51.560;14.368;2023-04-28T02:17:35;100547.16;;;12.36;59.76
65553;BME280;52465;51.560;14.368;2023-04-28T02:20:00;100535.31;;;12.32;59.87
65553;BME280;52465;51.560;14.368;2023-04-28T02:22:26;100535.50;;;12.30;59.96
65553;BME280;52465;51.560;14.368;2023-04-28T02:24:56;100555.22;;;12.42;59.81
65553;BME280;52465;51.560;14.368;2023-04-28T02:27:21;100510.03;;;12.14;59.50
65553;BME280;52465;51.560;14.368;2023-04-28T02:29:47;100509.38;;;12.12;59.78
65553;BME280;52465;51.560;14.368;2023-04-28T02:32:13;100509.84;;;12.16;59.72
65553;BME280;52465;51.560;14.368;2023-04-28T02:34:38;100546.00;;;12.38;59.64
65553;BME280;52465;51.560;14.368;2023-04-28T02:37:04;100542.03;;;12.34;59.52
65553;BME280;52465;51.560;14.368;2023-04-28T02:39:33;100531.88;;;12.31;59.54
65553;BME280;52465;51.560;14.368;2023-04-28T02:49:11;100514.41;;;12.06;60.65
65553;BME280;52465;51.560;14.368;2023-04-28T02:51:36;100529.09;;;12.25;60.71
65553;BME280;52465;51.560;14.368;2023-04-28T02:54:02;100529.25;;;12.31;60.49
65553;BME280;52465;51.560;14.368;2023-04-28T02:56:27;100513.81;;;12.28;60.15
65553;BME280;52465;51.560;14.368;2023-04-28T02:58:54;100457.81;;;11.87;59.88
65553;BME280;52465;51.560;14.368;2023-04-28T03:01:20;100508.56;;;12.20;60.00
65553;BME280;52465;51.560;14.368;2023-04-28T03:03:48;100518.75;;;12.31;60.24
65553;BME280;52465;51.560;14.368;2023-04-28T03:06:23;100518.59;;;12.33;59.96
65553;BME280;52465;51.560;14.368;2023-04-28T03:16:16;100469.47;;;12.01;61.06
65553;BME280;52465;51.560;14.368;2023-04-28T03:18:42;100487.06;;;12.16;60.49
65553;BME280;52465;51.560;14.368;2023-04-28T03:21:25;100495.31;;;12.30;60.59
65553;BME280;52465;51.560;14.368;2023-04-28T03:23:52;100495.94;;;12.32;60.01
65553;BME280;52465;51.560;14.368;2023-04-28T03:26:23;100489.06;;;12.31;60.03
65553;BME280;52465;51.560;14.368;2023-04-28T03:28:49;100495.94;;;12.32;60.12
65553;BME280;52465;51.560;14.368;2023-04-28T03:38:42;100469.47;;;12.01;60.62
65553;BME280;52465;51.560;14.368;2023-04-28T03:41:07;100493.63;;;12.21;60.20
65553;BME280;52465;51.560;14.368;2023-04-28T03:50:13;100489.34;;;12.11;59.96
65553;BME280;52465;51.560;14.368;2023-04-28T03:52:39;100455.69;;;11.99;60.14
65553;BME280;52465;51.560;14.368;2023-04-28T03:55:04;100484.28;;;12.18;59.81
65553;BME280;52465;51.560;14.368;2023-04-28T03:57:33;100475.25;;;12.21;59.50
65553;BME280;52465;51.560;14.368;2023-04-28T04:00:00;100464.59;;;12.14;59.13
65553;BME280;52465;51.560;14.368;2023-04-28T04:02:26;100426.16;;;11.88;58.99
65553;BME280;52465;51.560;14.368;2023-04-28T04:04:51;100467.56;;;12.19;59.17
65553;BME280;52465;51.560;14.368;2023-04-28T04:09:43;100449.81;;;12.05;59.07
65553;BME280;52465;51.560;14.368;2023-04-28T04:12:09;100394.25;;;11.67;59.09
65553;BME280;52465;51.560;14.368;2023-04-28T04:14:35;100384.91;;;11.56;58.79
65553;BME280;52465;51.560;14.368;2023-04-28T04:17:01;100466.38;;;12.05;58.95
65553;BME280;52465;51.560;14.368;2023-04-28T04:19:37;100466.72;;;12.10;59.09
65553;BME280;52465;51.560;14.368;2023-04-28T04:22:03;100469.50;;;12.09;59.51
65553;BME280;52465;51.560;14.368;2023-04-28T04:24:54;100466.22;;;12.07;59.03
65553;BME280;52465;51.560;14.368;2023-04-28T04:27:21;100450.97;;;12.02;59.17
65553;BME280;52465;51.560;14.368;2023-04-28T04:29:48;100425.97;;;11.82;58.99
65553;BME280;52465;51.560;14.368;2023-04-28T04:32:14;100392.44;;;11.59;58.87
65553;BME280;52465;51.560;14.368;2023-04-28T04:42:10;100455.34;;;11.94;60.31
65553;BME280;52465;51.560;14.368;2023-04-28T04:44:36;100435.19;;;11.94;60.04
65553;BME280;52465;51.560;14.368;2023-04-28T04:53:57;100414.28;;;11.76;60.23
65553;BME280;52465;51.560;14.368;2023-04-28T04:56:22;100432.41;;;12.04;59.79
65553;BME280;52465;51.560;14.368;2023-04-28T04:58:49;100428.16;;;12.03;59.52
65553;BME280;52465;51.560;14.368;2023-04-28T05:01:15;100422.91;;;12.03;59.33
65553;BME280;52465;51.560;14.368;2023-04-28T05:03:40;100421.63;;;12.07;59.21
65553;BME280;52465;51.560;14.368;2023-04-28T05:06:06;100429.31;;;12.08;59.23
65553;BME280;52465;51.560;14.368;2023-04-28T05:08:31;100417.84;;;12.01;59.20
65553;BME280;52465;51.560;14.368;2023-04-28T05:10:56;100408.63;;;11.97;59.45
65553;BME280;52465;51.560;14.368;2023-04-28T05:13:22;100414.69;;;12.06;59.11
65553;BME280;52465;51.560;14.368;2023-04-28T05:15:47;100413.06;;;12.05;59.06
65553;BME280;52465;51.560;14.368;2023-04-28T05:25:53;100413.50;;;11.84;59.89
65553;BME280;52465;51.560;14.368;2023-04-28T05:28:19;100349.16;;;11.47;59.62
65553;BME280;52465;51.560;14.368;2023-04-28T05:30:46;100398.13;;;11.89;59.48
65553;BME280;52465;51.560;14.368;2023-04-28T05:33:14;100411.44;;;12.04;59.65
65553;BME280;52465;51.560;14.368;2023-04-28T05:35:40;100376.59;;;11.77;59.53
65553;BME280;52465;51.560;14.368;2023-04-28T05:38:06;100410.63;;;12.03;59.27
65553;BME280;52465;51.560;14.368;2023-04-28T05:40:31;100412.25;;;12.04;59.38
65553;BME280;52465;51.560;14.368;2023-04-28T05:53:42;100379.41;;;11.84;60.05
65553;BME280;52465;51.560;14.368;2023-04-28T05:56:08;100394.53;;;11.98;60.08
65553;BME280;52465;51.560;14.368;2023-04-28T05:58:37;100393.38;;;12.01;59.53
65553;BME280;52465;51.560;14.368;2023-04-28T06:01:03;100379.28;;;11.94;59.64
65553;BME280;52465;51.560;14.368;2023-04-28T06:03:28;100384.19;;;12.05;59.74
65553;BME280;52465;51.560;14.368;2023-04-28T06:08:22;100360.56;;;11.88;59.23
65553;BME280;52465;51.560;14.368;2023-04-28T06:10:48;100380.94;;;12.03;59.44
65553;BME280;52465;51.560;14.368;2023-04-28T06:13:13;100376.81;;;12.00;59.31
65553;BME280;52465;51.560;14.368;2023-04-28T06:15:38;100356.00;;;11.90;59.16
65553;BME280;52465;51.560;14.368;2023-04-28T06:18:04;100363.53;;;11.94;59.32
65553;BME280;52465;51.560;14.368;2023-04-28T06:27:59;100356.66;;;11.84;60.08
65553;BME280;52465;51.560;14.368;2023-04-28T06:30:25;100365.84;;;11.97;59.98
65553;BME280;52465;51.560;14.368;2023-04-28T06:32:50;100363.69;;;12.00;59.77
65553;BME280;52465;51.560;14.368;2023-04-28T06:35:16;100360.94;;;12.02;59.48
65553;BME280;52465;51.560;14.368;2023-04-28T06:37:42;100332.38;;;11.82;59.43
65553;BME280;52465;51.560;14.368;2023-04-28T06:40:08;100342.19;;;11.80;59.32
65553;BME280;52465;51.560;14.368;2023-04-28T06:42:40;100340.75;;;11.86;59.02
65553;BME280;52465;51.560;14.368;2023-04-28T06:45:05;100351.72;;;11.98;59.39
65553;BME280;52465;51.560;14.368;2023-04-28T06:47:35;100339.59;;;11.88;59.18
65553;BME280;52465;51.560;14.368;2023-04-28T06:50:02;100354.69;;;12.03;59.42
65553;BME280;52465;51.560;14.368;2023-04-28T06:52:27;100336.97;;;11.88;59.17
65553;BME280;52465;51.560;14.368;2023-04-28T06:54:54;100358.31;;;12.02;59.05
65553;BME280;52465;51.560;14.368;2023-04-28T06:57:30;100361.88;;;12.01;59.11
65553;BME280;52465;51.560;14.368;2023-04-28T06:59:56;100352.25;;;12.01;59.21
65553;BME280;52465;51.560;14.368;2023-04-28T07:02:24;100291.19;;;11.58;59.10
65553;BME280;52465;51.560;14.368;2023-04-28T07:04:50;100331.06;;;11.86;59.22
65553;BME280;52465;51.560;14.368;2023-04-28T07:07:16;100343.34;;;11.94;58.92
65553;BME280;52465;51.560;14.368;2023-04-28T07:09:41;100344.50;;;12.00;58.80
65553;BME280;52465;51.560;14.368;2023-04-28T07:12:07;100330.72;;;11.89;59.08
65553;BME280;52465;51.560;14.368;2023-04-28T07:14:33;100276.91;;;11.53;58.78
65553;BME280;52465;51.560;14.368;2023-04-28T07:24:13;100298.09;;;11.68;59.83
65553;BME280;52465;51.560;14.368;2023-04-28T07:26:38;100325.00;;;11.94;59.23
65553;BME280;52465;51.560;14.368;2023-04-28T07:29:04;100318.63;;;11.97;59.15
65553;BME280;52465;51.560;14.368;2023-04-28T07:31:31;100296.97;;;11.86;58.83
65553;BME280;52465;51.560;14.368;2023-04-28T07:33:59;100323.69;;;12.06;59.03
65553;BME280;52465;51.560;14.368;2023-04-28T07:36:43;100294.84;;;11.90;59.22
65553;BME280;52465;51.560;14.368;2023-04-28T07:39:08;100301.06;;;11.97;58.98
65553;BME280;52465;51.560;14.368;2023-04-28T07:51:14;100283.22;;;11.84;59.06
65553;BME280;52465;51.560;14.368;2023-04-28T07:53:40;100290.22;;;12.00;59.08
65553;BME280;52465;51.560;14.368;2023-04-28T07:56:06;100296.94;;;12.11;58.60
65553;BME280;52465;51.560;14.368;2023-04-28T07:58:31;100296.31;;;12.09;58.80
65553;BME280;52465;51.560;14.368;2023-04-28T08:07:50;100293.03;;;12.07;58.88
65553;BME280;52465;51.560;14.368;2023-04-28T08:10:16;100290.72;;;12.12;59.00
65553;BME280;52465;51.560;14.368;2023-04-28T08:12:41;100242.19;;;11.83;58.69
65553;BME280;52465;51.560;14.368;2023-04-28T08:15:08;100262.69;;;12.12;58.13
65553;BME280;52465;51.560;14.368;2023-04-28T08:17:34;100279.25;;;12.13;58.40
65553;BME280;52465;51.560;14.368;2023-04-28T08:20:03;100277.91;;;12.17;58.23
65553;BME280;52465;51.560;14.368;2023-04-28T08:22:32;100283.16;;;12.25;58.31
65553;BME280;52465;51.560;14.368;2023-04-28T08:24:57;100294.13;;;12.29;58.03
65553;BME280;52465;51.560;14.368;2023-04-28T08:27:23;100281.00;;;12.29;58.27
65553;BME280;52465;51.560;14.368;2023-04-28T08:29:50;100261.66;;;12.22;58.08
65553;BME280;52465;51.560;14.368;2023-04-28T08:32:17;100271.84;;;12.25;57.90
65553;BME280;52465;51.560;14.368;2023-04-28T08:34:45;100278.38;;;12.29;58.03
65553;BME280;52465;51.560;14.368;2023-04-28T08:37:10;100261.34;;;12.25;58.26
65553;BME280;52465;51.560;14.368;2023-04-28T08:39:36;100275.63;;;12.30;58.27
65553;BME280;52465;51.560;14.368;2023-04-28T08:44:27;100249.22;;;12.24;57.92
65553;BME280;52465;51.560;14.368;2023-04-28T08:46:57;100255.25;;;12.32;58.09
65553;BME280;52465;51.560;14.368;2023-04-28T08:49:26;100250.81;;;12.33;58.06
65553;BME280;52465;51.560;14.368;2023-04-28T08:51:58;100248.69;;;12.36;58.14
65553;BME280;52465;51.560;14.368;2023-04-28T08:54:29;100244.44;;;12.35;57.79
65553;BME280;52465;51.560;14.368;2023-04-28T08:56:56;100243.25;;;12.38;57.64
65553;BME280;52465;51.560;14.368;2023-04-28T08:59:22;100214.09;;;12.25;57.78
65553;BME280;52465;51.560;14.368;2023-04-28T09:01:49;100228.81;;;12.34;57.89
65553;BME280;52465;51.560;14.368;2023-04-28T09:04:18;100231.75;;;12.39;58.07
65553;BME280;52465;51.560;14.368;2023-04-28T09:12:45;100229.63;;;12.34;58.92
65553;BME280;52465;51.560;14.368;2023-04-28T09:18:13;100227.16;;;12.49;58.73
65553;BME280;52465;51.560;14.368;2023-04-28T09:20:43;100212.88;;;12.43;58.31
65553;BME280;52465;51.560;14.368;2023-04-28T09:23:15;100221.56;;;12.52;58.16
65553;BME280;52465;51.560;14.368;2023-04-28T09:28:42;100165.56;;;12.21;58.27
65553;BME280;52465;51.560;14.368;2023-04-28T09:31:23;100220.22;;;12.56;58.33
65553;BME280;52465;51.560;14.368;2023-04-28T09:36:26;100218.06;;;12.60;57.96
65553;BME280;52465;51.560;14.368;2023-04-28T09:38:59;100203.94;;;12.61;58.01
65553;BME280;52465;51.560;14.368;2023-04-28T09:41:37;100188.06;;;12.54;57.85
65553;BME280;52465;51.560;14.368;2023-04-28T09:52:55;100164.47;;;12.46;58.83
65553;BME280;52465;51.560;14.368;2023-04-28T09:55:43;100183.88;;;12.68;58.26
65553;BME280;52465;51.560;14.368;2023-04-28T09:58:10;100191.56;;;12.78;58.30
65553;BME280;52465;51.560;14.368;2023-04-28T10:00:40;100188.75;;;12.79;58.22
65553;BME280;52465;51.560;14.368;2023-04-28T10:03:07;100176.31;;;12.73;58.09
65553;BME280;52465;51.560;14.368;2023-04-28T10:05:34;100172.03;;;12.80;57.83
65553;BME280;52465;51.560;14.368;2023-04-28T10:08:03;100185.47;;;12.85;57.84
65553;BME280;52465;51.560;14.368;2023-04-28T10:10:28;100179.53;;;12.83;58.00
65553;BME280;52465;51.560;14.368;2023-04-28T10:12:54;100123.75;;;12.50;57.84
65553;BME280;52465;51.560;14.368;2023-04-28T10:15:19;100166.00;;;12.94;57.76
65553;BME280;52465;51.560;14.368;2023-04-28T10:17:46;100156.91;;;13.05;57.55
65553;BME280;52465;51.560;14.368;2023-04-28T10:20:14;100132.56;;;13.11;57.18
65553;BME280;52465;51.560;14.368;2023-04-28T10:25:34;100136.25;;;13.63;56.41
65553;BME280;52465;51.560;14.368;2023-04-28T10:28:04;100132.06;;;13.68;55.94
65553;BME280;52465;51.560;14.368;2023-04-28T10:30:30;100130.75;;;13.87;55.99
65553;BME280;52465;51.560;14.368;2023-04-28T10:33:22;100133.84;;;14.06;55.64
65553;BME280;52465;51.560;14.368;2023-04-28T10:35:51;100130.94;;;14.15;55.65
65553;BME280;52465;51.560;14.368;2023-04-28T10:38:18;100084.91;;;13.96;55.53
65553;BME280;52465;51.560;14.368;2023-04-28T10:40:51;100097.13;;;14.19;55.57
65553;BME280;52465;51.560;14.368;2023-04-28T10:56:11;100113.53;;;14.65;55.71
65553;BME280;52465;51.560;14.368;2023-04-28T10:58:37;100103.78;;;14.66;55.63
65553;BME280;52465;51.560;14.368;2023-04-28T11:06:22;100102.91;;;14.80;55.56
65553;BME280;52465;51.560;14.368;2023-04-28T11:08:51;100103.56;;;14.82;55.38
65553;BME280;52465;51.560;14.368;2023-04-28T11:11:19;100103.97;;;14.86;55.71
65553;BME280;52465;51.560;14.368;2023-04-28T11:13:46;100103.97;;;14.86;55.55
65553;BME280;52465;51.560;14.368;2023-04-28T11:16:14;100106.06;;;14.90;55.51
65553;BME280;52465;51.560;14.368;2023-04-28T11:18:49;100100.41;;;14.93;55.62
65553;BME280;52465;51.560;14.368;2023-04-28T11:21:39;100104.69;;;14.94;55.70
65553;BME280;52465;51.560;14.368;2023-04-28T11:24:08;100094.34;;;14.93;55.66
65553;BME280;52465;51.560;14.368;2023-04-28T11:26:36;100070.88;;;14.76;55.70
65553;BME280;52465;51.560;14.368;2023-04-28T11:29:03;100094.94;;;14.95;55.51
65553;BME280;52465;51.560;14.368;2023-04-28T11:31:29;100090.03;;;14.92;55.79
65553;BME280;52465;51.560;14.368;2023-04-28T11:34:10;100095.81;;;15.02;55.87
65553;BME280;52465;51.560;14.368;2023-04-28T11:36:41;100097.84;;;15.00;55.75
65553;BME280;52465;51.560;14.368;2023-04-28T11:39:11;100097.19;;;14.98;55.70
65553;BME280;52465;51.560;14.368;2023-04-28T11:41:42;100111.06;;;15.06;55.65
65553;BME280;52465;51.560;14.368;2023-04-28T11:44:16;100104.38;;;15.04;55.74
65553;BME280;52465;51.560;14.368;2023-04-28T11:49:20;100095.00;;;15.01;55.86
65553;BME280;52465;51.560;14.368;2023-04-28T11:51:46;100104.78;;;15.07;55.94
65553;BME280;52465;51.560;14.368;2023-04-28T11:54:22;100056.03;;;14.75;55.66
65553;BME280;52465;51.560;14.368;2023-04-28T11:56:49;100108.25;;;15.08;55.71
65553;BME280;52465;51.560;14.368;2023-04-28T11:59:15;100098.66;;;15.00;55.96
65553;BME280;52465;51.560;14.368;2023-04-28T12:01:49;100115.53;;;15.06;55.81
65553;BME280;52465;51.560;14.368;2023-04-28T12:04:32;100109.66;;;15.04;56.13
65553;BME280;52465;51.560;14.368;2023-04-28T12:07:12;100099.03;;;14.97;56.13
65553;BME280;52465;51.560;14.368;2023-04-28T12:09:45;100105.56;;;15.01;55.96
65553;BME280;52465;51.560;14.368;2023-04-28T12:12:29;100112.09;;;15.05;56.28
65553;BME280;52465;51.560;14.368;2023-04-28T12:15:02;100102.59;;;14.90;56.41
65553;BME280;52465;51.560;14.368;2023-04-28T12:17:37;100111.06;;;15.06;56.02
65553;BME280;52465;51.560;14.368;2023-04-28T12:20:08;100115.34;;;15.07;56.33
65553;BME280;52465;51.560;14.368;2023-04-28T12:22:46;100100.53;;;15.06;55.95
65553;BME280;52465;51.560;14.368;2023-04-28T12:25:14;100092.50;;;14.93;56.41
65553;BME280;52465;51.560;14.368;2023-04-28T12:32:45;100078.44;;;14.86;56.36
65553;BME280;52465;51.560;14.368;2023-04-28T12:35:10;100112.09;;;15.05;56.32
65553;BME280;52465;51.560;14.368;2023-04-28T12:37:36;100107.00;;;15.04;56.34
65553;BME280;52465;51.560;14.368;2023-04-28T12:40:07;100119.81;;;15.07;56.62
65553;BME280;52465;51.560;14.368;2023-04-28T12:42:33;100101.53;;;15.05;56.45
65553;BME280;52465;51.560;14.368;2023-04-28T12:45:01;100106.38;;;15.02;56.27
65553;BME280;52465;51.560;14.368;2023-04-28T12:47:27;100109.81;;;15.02;56.48
65553;BME280;52465;51.560;14.368;2023-04-28T12:49:53;100113.25;;;15.03;56.40
65553;BME280;52465;51.560;14.368;2023-04-28T12:52:19;100112.28;;;15.04;56.46
65553;BME280;52465;51.560;14.368;2023-04-28T12:54:45;100112.44;;;15.02;56.33
65553;BME280;52465;51.560;14.368;2023-04-28T12:57:17;100114.06;;;15.03;56.43
65553;BME280;52465;51.560;14.368;2023-04-28T12:59:43;100107.56;;;14.99;56.49
65553;BME280;52465;51.560;14.368;2023-04-28T13:02:12;100111.38;;;14.97;56.34
65553;BME280;52465;51.560;14.368;2023-04-28T13:04:41;100102.00;;;14.88;56.52
65553;BME280;52465;51.560;14.368;2023-04-28T13:07:09;100122.19;;;15.02;56.65
65553;BME280;52465;51.560;14.368;2023-04-28T13:09:34;100078.31;;;14.73;56.49
65553;BME280;52465;51.560;14.368;2023-04-28T13:12:01;100106.69;;;14.92;56.54
65553;BME280;52465;51.560;14.368;2023-04-28T13:14:28;100115.28;;;15.01;56.55
65553;BME280;52465;51.560;14.368;2023-04-28T13:16:55;100083.44;;;14.81;56.59
65553;BME280;52465;51.560;14.368;2023-04-28T13:19:23;100117.47;;;14.97;56.68
65553;BME280;52465;51.560;14.368;2023-04-28T13:21:48;100074.88;;;14.72;56.74
65553;BME280;52465;51.560;14.368;2023-04-28T13:24:14;100111.22;;;14.98;56.67
65553;BME280;52465;51.560;14.368;2023-04-28T13:26:47;100100.34;;;14.87;56.46
65553;BME280;52465;51.560;14.368;2023-04-28T13:29:12;100100.72;;;14.84;56.56
65553;BME280;52465;51.560;14.368;2023-04-28T13:31:38;100107.94;;;14.96;56.76
65553;BME280;52465;51.560;14.368;2023-04-28T13:34:04;100100.34;;;14.87;56.70
65553;BME280;52465;51.560;14.368;2023-04-28T13:36:30;100074.13;;;14.78;56.97
65553;BME280;52465;51.560;14.368;2023-04-28T13:38:57;100104.88;;;14.93;56.85
65553;BME280;52465;51.560;14.368;2023-04-28T13:41:22;100097.13;;;14.91;56.73
65553;BME280;52465;51.560;14.368;2023-04-28T13:43:48;100103.06;;;14.93;56.74
65553;BME280;52465;51.560;14.368;2023-04-28T13:46:15;100058.81;;;14.67;56.84
65553;BME280;52465;51.560;14.368;2023-04-28T13:48:40;100074.75;;;14.80;56.85
65553;BME280;52465;51.560;14.368;2023-04-28T13:51:06;100087.41;;;14.92;57.16
65553;BME280;52465;51.560;14.368;2023-04-28T13:53:33;100079.09;;;14.88;57.14
65553;BME280;52465;51.560;14.368;2023-04-28T13:55:59;100090.25;;;14.90;56.93
65553;BME280;52465;51.560;14.368;2023-04-28T13:58:26;100081.47;;;14.83;57.17
65553;BME280;52465;51.560;14.368;2023-04-28T14:00:53;100090.44;;;14.89;57.03
65553;BME280;52465;51.560;14.368;2023-04-28T14:03:19;100070.66;;;14.78;57.07
65553;BME280;52465;51.560;14.368;2023-04-28T14:05:47;100090.81;;;14.86;56.96
65553;BME280;52465;51.560;14.368;2023-04-28T14:08:14;100087.16;;;14.87;57.01
65553;BME280;52465;51.560;14.368;2023-04-28T14:10:39;100052.09;;;14.65;56.99
65553;BME280;52465;51.560;14.368;2023-04-28T14:13:07;100076.13;;;14.76;57.30
65553;BME280;52465;51.560;14.368;2023-04-28T14:15:33;100083.28;;;14.82;57.39
65553;BME280;52465;51.560;14.368;2023-04-28T14:17:59;100073.56;;;14.83;57.23
65553;BME280;52465;51.560;14.368;2023-04-28T14:20:24;100075.19;;;14.84;57.22
65553;BME280;52465;51.560;14.368;2023-04-28T14:22:50;100073.56;;;14.83;57.17
65553;BME280;52465;51.560;14.368;2023-04-28T14:25:16;100058.66;;;14.75;57.49
65553;BME280;52465;51.560;14.368;2023-04-28T14:27:43;100068.28;;;14.83;57.13
65553;BME280;52465;51.560;14.368;2023-04-28T14:30:08;100068.66;;;14.80;57.28
65553;BME280;52465;51.560;14.368;2023-04-28T14:32:35;100067.47;;;14.82;57.22
65553;BME280;52465;51.560;14.368;2023-04-28T14:35:00;100054.84;;;14.78;57.15
65553;BME280;52465;51.560;14.368;2023-04-28T14:37:29;100046.94;;;14.78;57.18
65553;BME280;52465;51.560;14.368;2023-04-28T14:39:55;100060.75;;;14.80;57.36
65553;BME280;52465;51.560;14.368;2023-04-28T14:42:20;100055.31;;;14.81;57.49
65553;BME280;52465;51.560;14.368;2023-04-28T14:44:46;100054.66;;;14.79;57.35
65553;BME280;52465;51.560;14.368;2023-04-28T14:47:12;100002.81;;;14.44;57.18
65553;BME280;52465;51.560;14.368;2023-04-28T14:49:38;100032.31;;;14.75;57.45
65553;BME280;52465;51.560;14.368;2023-04-28T14:52:04;100033.78;;;14.78;57.51
65553;BME280;52465;51.560;14.368;2023-04-28T14:54:29;100002.72;;;14.52;57.58
65553;BME280;52465;51.560;14.368;2023-04-28T14:56:56;100034.13;;;14.75;57.53
65553;BME280;52465;51.560;14.368;2023-04-28T14:59:25;100011.38;;;14.67;57.37
65553;BME280;52465;51.560;14.368;2023-04-28T15:01:51;100026.88;;;14.77;57.63
65553;BME280;52465;51.560;14.368;2023-04-28T15:04:17;100027.25;;;14.74;57.49
65553;BME280;52465;51.560;14.368;2023-04-28T15:06:42;100008.75;;;14.67;57.45
65553;BME280;52465;51.560;14.368;2023-04-28T15:09:10;100020.16;;;14.74;57.57
65553;BME280;52465;51.560;14.368;2023-04-28T15:11:36;100002.41;;;14.62;57.45
65553;BME280;52465;51.560;14.368;2023-04-28T15:14:01;100024.19;;;14.70;57.22
65553;BME280;52465;51.560;14.368;2023-04-28T15:16:26;100015.28;;;14.71;57.62
65553;BME280;52465;51.560;14.368;2023-04-28T15:18:53;100011.84;;;14.71;57.14
65553;BME280;52465;51.560;14.368;2023-04-28T15:21:19;100015.63;;;14.68;57.46
65553;BME280;52465;51.560;14.368;2023-04-28T15:23:45;100014.47;;;14.71;57.63
65553;BME280;52465;51.560;14.368;2023-04-28T15:26:11;100011.03;;;14.70;57.14
65553;BME280;52465;51.560;14.368;2023-04-28T15:28:37;100008.56;;;14.69;57.23
65553;BME280;52465;51.560;14.368;2023-04-28T15:31:02;100009.34;;;14.69;57.37
65553;BME280;52465;51.560;14.368;2023-04-28T15:33:28;100008.19;;;14.72;57.33
65553;BME280;52465;51.560;14.368;2023-04-28T15:35:54;100003.94;;;14.71;57.16
65553;BME280;52465;51.560;14.368;2023-04-28T15:38:19;99956.53;;;14.35;57.10
65553;BME280;52465;51.560;14.368;2023-04-28T15:40:45;99995.22;;;14.70;57.34